createdAt,value
2023-03-24T00:01:06.376Z,12.80
2023-03-24T00:03:33.341Z,12.80
2023-03-24T00:06:04.690Z,12.80
2023-03-24T00:08:36.459Z,12.80
2023-03-24T00:11:06.544Z,12.90
2023-03-24T00:13:38.421Z,12.90
2023-03-24T00:16:10.504Z,12.90
2023-03-24T00:18:37.613Z,12.90
2023-03-24T00:21:05.362Z,12.90
2023-03-24T00:23:33.806Z,12.80
2023-03-24T00:26:06.115Z,12.80
2023-03-24T00:28:33.922Z,12.80
2023-03-24T00:31:02.438Z,12.80
2023-03-24T00:33:32.983Z,12.80
2023-03-24T00:36:00.022Z,12.90
2023-03-24T00:38:27.337Z,12.90
2023-03-24T00:40:54.360Z,12.80
2023-03-24T00:43:21.116Z,12.80
2023-03-24T00:45:48.135Z,12.90
2023-03-24T00:48:15.817Z,12.80
2023-03-24T00:50:46.835Z,12.80
2023-03-24T00:53:17.077Z,12.80
2023-03-24T00:55:46.197Z,12.80
2023-03-24T00:58:18.332Z,12.80
2023-03-24T01:00:53.735Z,12.80
2023-03-24T01:03:27.293Z,12.90
2023-03-24T01:05:57.543Z,12.90
2023-03-24T01:08:25.809Z,12.90
2023-03-24T01:10:57.259Z,12.90
2023-03-24T01:13:25.522Z,12.90
2023-03-24T01:15:53.004Z,12.90
2023-03-24T01:18:20.062Z,12.90
2023-03-24T01:20:49.871Z,13.00
2023-03-24T01:23:21.397Z,13.10
2023-03-24T01:25:48.530Z,13.00
2023-03-24T01:28:17.255Z,13.00
2023-03-24T01:30:44.457Z,12.90
2023-03-24T01:33:11.375Z,12.90
2023-03-24T01:35:38.115Z,12.90
2023-03-24T01:38:05.991Z,12.90
2023-03-24T01:40:33.686Z,12.80
2023-03-24T01:43:01.186Z,12.90
2023-03-24T01:45:40.493Z,12.90
2023-03-24T01:48:18.440Z,12.90
2023-03-24T01:50:47.329Z,12.90
2023-03-24T01:53:15.437Z,12.80
2023-03-24T01:55:42.875Z,12.80
2023-03-24T01:58:09.902Z,12.80
2023-03-24T02:00:38.129Z,12.80
2023-03-24T02:03:08.262Z,12.70
2023-03-24T02:05:37.368Z,12.80
2023-03-24T02:08:28.383Z,12.80
2023-03-24T02:10:56.154Z,12.80
2023-03-24T02:13:23.775Z,12.80
2023-03-24T02:16:09.119Z,12.60
2023-03-24T02:18:35.841Z,12.60
2023-03-24T02:21:12.197Z,12.40
2023-03-24T02:23:57.698Z,12.40
2023-03-24T02:26:33.444Z,12.30
2023-03-24T02:29:18.493Z,12.10
2023-03-24T02:32:03.575Z,12.10
2023-03-24T02:34:49.994Z,12.00
2023-03-24T02:37:35.629Z,11.90
2023-03-24T02:40:02.380Z,11.80
2023-03-24T02:42:43.966Z,11.70
2023-03-24T02:45:16.734Z,11.70
2023-03-24T02:48:02.011Z,11.70
2023-03-24T02:50:37.092Z,11.70
2023-03-24T02:53:09.223Z,11.70
2023-03-24T02:55:54.157Z,11.60
2023-03-24T02:58:32.829Z,11.60
2023-03-24T03:01:31.224Z,11.50
2023-03-24T03:04:04.210Z,11.50
2023-03-24T03:06:32.742Z,11.40
2023-03-24T03:09:01.485Z,11.40
2023-03-24T03:11:28.316Z,11.40
2023-03-24T03:13:58.112Z,11.30
2023-03-24T03:16:38.453Z,11.30
2023-03-24T03:19:09.942Z,11.30
2023-03-24T03:21:41.034Z,11.30
2023-03-24T03:24:12.787Z,11.30
2023-03-24T03:26:39.877Z,11.30
2023-03-24T03:29:10.064Z,11.30
2023-03-24T03:31:49.683Z,11.20
2023-03-24T03:34:36.303Z,11.20
2023-03-24T03:37:22.345Z,11.20
2023-03-24T03:39:54.384Z,11.20
2023-03-24T03:42:21.260Z,11.20
2023-03-24T03:44:48.110Z,11.20
2023-03-24T03:47:15.790Z,11.20
2023-03-24T03:49:43.536Z,11.20
2023-03-24T03:52:10.618Z,11.10
2023-03-24T03:54:37.757Z,11.20
2023-03-24T03:57:04.793Z,11.20
2023-03-24T03:59:36.340Z,11.10
2023-03-24T04:02:08.857Z,11.10
2023-03-24T04:04:53.258Z,11.10
2023-03-24T04:07:24.460Z,11.10
2023-03-24T04:10:03.224Z,11.10
2023-03-24T04:12:29.925Z,11.10
2023-03-24T04:15:02.853Z,11.00
2023-03-24T04:17:29.591Z,11.00
2023-03-24T04:20:06.071Z,11.00
2023-03-24T04:22:44.101Z,11.00
2023-03-24T04:25:17.262Z,10.90
2023-03-24T04:27:48.108Z,10.90
2023-03-24T04:30:32.971Z,10.80
2023-03-24T04:33:08.850Z,10.80
2023-03-24T04:35:40.779Z,10.80
2023-03-24T04:38:10.810Z,10.70
2023-03-24T04:40:41.989Z,10.70
2023-03-24T04:43:10.166Z,10.70
2023-03-24T04:45:37.021Z,10.60
2023-03-24T04:48:04.776Z,10.60
2023-03-24T04:50:40.765Z,10.60
2023-03-24T04:53:08.251Z,10.60
2023-03-24T04:55:50.266Z,10.60
2023-03-24T04:58:17.582Z,10.70
2023-03-24T05:00:45.088Z,10.70
2023-03-24T05:03:16.783Z,10.70
2023-03-24T05:05:44.380Z,10.70
2023-03-24T05:08:11.610Z,10.80
2023-03-24T05:10:38.653Z,10.80
2023-03-24T05:13:06.930Z,10.70
2023-03-24T05:15:33.759Z,10.70
2023-03-24T05:18:00.973Z,10.60
2023-03-24T05:20:28.076Z,10.50
2023-03-24T05:22:54.754Z,10.50
2023-03-24T05:25:21.633Z,10.40
2023-03-24T05:27:48.425Z,10.40
2023-03-24T05:30:15.730Z,10.40
2023-03-24T05:32:43.014Z,10.40
2023-03-24T05:35:11.148Z,10.30
2023-03-24T05:37:37.903Z,10.30
2023-03-24T05:40:04.847Z,10.30
2023-03-24T05:42:31.518Z,10.30
2023-03-24T05:44:58.592Z,10.30
2023-03-24T05:47:25.572Z,10.20
2023-03-24T05:49:52.402Z,10.20
2023-03-24T05:52:20.550Z,10.20
2023-03-24T05:54:49.473Z,10.20
2023-03-24T05:57:16.536Z,10.20
2023-03-24T05:59:43.248Z,10.20
2023-03-24T06:02:10.438Z,10.30
2023-03-24T06:04:38.162Z,10.30
2023-03-24T06:07:05.024Z,10.20
2023-03-24T06:09:37.176Z,10.30
2023-03-24T06:12:05.873Z,10.30
2023-03-24T06:14:33.741Z,10.30
2023-03-24T06:17:00.885Z,10.30
2023-03-24T06:19:30.796Z,10.30
2023-03-24T06:22:00.558Z,10.20
2023-03-24T06:24:27.648Z,10.20
2023-03-24T06:26:58.991Z,10.40
2023-03-24T06:29:25.705Z,10.50
2023-03-24T06:31:52.729Z,10.50
2023-03-24T06:34:19.391Z,10.60
2023-03-24T06:36:46.334Z,10.60
2023-03-24T06:39:13.137Z,10.70
2023-03-24T06:41:39.816Z,10.70
2023-03-24T06:44:06.684Z,10.70
2023-03-24T06:46:33.444Z,10.80
2023-03-24T06:49:00.497Z,10.70
2023-03-24T06:51:27.211Z,10.60
2023-03-24T06:53:53.902Z,10.70
2023-03-24T06:56:21.675Z,10.70
2023-03-24T06:58:49.428Z,10.90
2023-03-24T07:01:16.333Z,11.00
2023-03-24T07:03:43.744Z,11.10
2023-03-24T07:06:10.594Z,11.10
2023-03-24T07:08:38.805Z,11.00
2023-03-24T07:11:07.721Z,11.10
2023-03-24T07:13:34.479Z,11.10
2023-03-24T07:16:01.303Z,11.20
2023-03-24T07:18:28.052Z,11.20
2023-03-24T07:23:34.776Z,11.20
2023-03-24T07:26:01.722Z,11.20
2023-03-24T07:28:28.664Z,11.30
2023-03-24T07:30:55.764Z,11.30
2023-03-24T07:33:24.913Z,11.40
2023-03-24T07:35:56.262Z,11.70
2023-03-24T07:38:24.219Z,11.70
2023-03-24T07:40:51.109Z,11.70
2023-03-24T07:43:18.072Z,11.60
2023-03-24T07:45:46.501Z,11.50
2023-03-24T07:48:13.719Z,11.50
2023-03-24T07:50:40.572Z,11.60
2023-03-24T07:53:10.381Z,11.50
2023-03-24T07:55:38.569Z,11.60
2023-03-24T07:58:06.158Z,11.60
2023-03-24T08:00:33.734Z,11.60
2023-03-24T08:03:00.944Z,11.60
2023-03-24T08:05:29.943Z,11.70
2023-03-24T08:07:58.647Z,11.60
2023-03-24T08:10:30.849Z,11.50
2023-03-24T08:12:59.211Z,11.60
2023-03-24T08:15:27.608Z,11.50
2023-03-24T08:17:56.773Z,11.60
2023-03-24T08:20:25.010Z,11.60
2023-03-24T08:22:54.166Z,11.60
2023-03-24T08:25:24.538Z,11.70
2023-03-24T08:27:51.781Z,11.70
2023-03-24T08:30:23.732Z,11.90
2023-03-24T08:32:56.034Z,12.10
2023-03-24T08:35:28.763Z,12.20
2023-03-24T08:37:55.574Z,12.30
2023-03-24T08:40:24.377Z,12.50
2023-03-24T08:43:00.153Z,12.40
2023-03-24T08:45:30.553Z,12.40
2023-03-24T08:48:00.060Z,12.70
2023-03-24T08:50:30.030Z,12.70
2023-03-24T08:52:57.343Z,12.70
2023-03-24T08:55:24.655Z,12.80
2023-03-24T08:57:52.116Z,12.80
2023-03-24T09:00:20.823Z,12.70
2023-03-24T09:02:50.345Z,12.60
2023-03-24T09:05:21.314Z,12.50
2023-03-24T09:07:53.823Z,12.50
2023-03-24T09:10:22.637Z,12.60
2023-03-24T09:12:49.661Z,12.50
2023-03-24T09:15:16.580Z,12.50
2023-03-24T09:17:43.504Z,12.60
2023-03-24T09:20:13.642Z,12.80
2023-03-24T09:22:46.245Z,12.60
2023-03-24T09:25:18.812Z,12.60
2023-03-24T09:27:46.154Z,12.80
2023-03-24T09:30:18.266Z,12.80
2023-03-24T09:32:46.214Z,12.60
2023-03-24T09:35:13.653Z,12.70
2023-03-24T09:37:42.256Z,12.70
2023-03-24T09:40:21.456Z,12.70
2023-03-24T09:43:09.541Z,12.80
2023-03-24T09:45:44.451Z,12.90
2023-03-24T09:48:27.609Z,13.00
2023-03-24T09:51:04.053Z,13.00
2023-03-24T09:53:49.848Z,13.00
2023-03-24T09:56:17.866Z,13.00
2023-03-24T09:58:49.857Z,13.20
2023-03-24T10:01:18.110Z,13.70
2023-03-24T10:03:46.885Z,14.00
2023-03-24T10:06:26.031Z,14.30
2023-03-24T10:09:07.187Z,14.00
2023-03-24T10:11:51.622Z,14.00
2023-03-24T10:14:24.975Z,14.20
2023-03-24T10:16:51.752Z,14.00
2023-03-24T10:19:59.714Z,14.00
2023-03-24T10:22:39.547Z,13.70
2023-03-24T10:25:19.359Z,13.60
2023-03-24T10:27:54.120Z,13.50
2023-03-24T10:30:30.789Z,13.30
2023-03-24T10:32:58.357Z,13.40
2023-03-24T10:35:33.446Z,13.50
2023-03-24T10:38:02.804Z,13.40
2023-03-24T10:40:33.978Z,13.20
2023-03-24T10:43:06.698Z,13.00
2023-03-24T10:45:42.006Z,12.60
2023-03-24T10:48:09.772Z,12.20
2023-03-24T10:50:43.090Z,12.00
2023-03-24T10:53:20.189Z,11.50
2023-03-24T10:55:48.362Z,11.10
2023-03-24T10:58:26.365Z,10.40
2023-03-24T11:00:54.024Z,10.60
2023-03-24T11:03:30.835Z,10.50
2023-03-24T11:06:03.120Z,10.50
2023-03-24T11:08:39.169Z,10.50
2023-03-24T11:11:23.903Z,10.50
2023-03-24T11:14:04.343Z,10.60
2023-03-24T11:16:36.656Z,10.90
2023-03-24T11:19:22.322Z,11.60
2023-03-24T11:21:51.650Z,11.40
2023-03-24T11:24:20.865Z,11.20
2023-03-24T11:27:03.294Z,11.20
2023-03-24T11:29:33.431Z,11.20
2023-03-24T11:32:11.002Z,11.10
2023-03-24T11:34:48.943Z,11.10
2023-03-24T11:37:22.471Z,11.10
2023-03-24T11:40:17.428Z,11.10
2023-03-24T11:42:51.131Z,11.10
2023-03-24T11:45:25.988Z,11.00
2023-03-24T11:47:58.971Z,11.20
2023-03-24T11:50:37.786Z,11.70
2023-03-24T11:53:10.672Z,12.00
2023-03-24T11:55:53.595Z,12.50
2023-03-24T11:58:32.414Z,12.60
2023-03-24T12:01:04.157Z,12.80
2023-03-24T12:03:58.729Z,12.80
2023-03-24T12:06:50.806Z,12.90
2023-03-24T12:10:01.855Z,12.70
2023-03-24T12:12:57.085Z,12.90
2023-03-24T12:15:29.867Z,12.90
2023-03-24T12:18:27.024Z,12.70
2023-03-24T12:20:57.167Z,12.60
2023-03-24T12:23:39.027Z,13.40
2023-03-24T12:26:14.432Z,13.90
2023-03-24T12:29:02.139Z,13.90
2023-03-24T12:31:31.974Z,13.80
2023-03-24T12:34:25.629Z,13.60
2023-03-24T12:37:30.107Z,13.40
2023-03-24T12:40:10.294Z,13.90
2023-03-24T12:43:10.527Z,14.30
2023-03-24T12:45:53.278Z,13.80
2023-03-24T12:48:29.076Z,14.30
2023-03-24T12:51:10.872Z,14.50
2023-03-24T12:54:05.156Z,14.40
2023-03-24T12:56:56.622Z,14.30
2023-03-24T12:59:46.114Z,14.20
2023-03-24T13:02:34.238Z,14.60
2023-03-24T13:05:05.551Z,14.30
2023-03-24T13:07:39.146Z,14.10
2023-03-24T13:10:23.138Z,13.70
2023-03-24T13:12:58.209Z,13.70
2023-03-24T13:15:45.827Z,13.80
2023-03-24T13:18:21.571Z,13.60
2023-03-24T13:21:00.988Z,13.50
2023-03-24T13:23:55.261Z,13.30
2023-03-24T13:26:24.885Z,13.30
2023-03-24T13:29:20.047Z,13.40
2023-03-24T13:32:09.868Z,13.80
2023-03-24T13:34:42.791Z,13.70
2023-03-24T13:37:26.808Z,13.50
2023-03-24T13:39:59.659Z,13.50
2023-03-24T13:42:42.201Z,13.40
2023-03-24T13:45:34.842Z,13.40
2023-03-24T13:48:11.009Z,13.40
2023-03-24T13:50:40.938Z,13.50
2023-03-24T13:53:14.720Z,13.50
2023-03-24T13:55:49.363Z,13.20
2023-03-24T13:58:22.479Z,13.10
2023-03-24T14:01:11.261Z,13.30
2023-03-24T14:03:43.387Z,13.30
2023-03-24T14:06:15.199Z,13.30
2023-03-24T14:08:48.154Z,13.40
2023-03-24T14:11:41.437Z,13.40
2023-03-24T14:14:21.852Z,14.00
2023-03-24T14:17:13.673Z,14.20
2023-03-24T14:19:58.956Z,14.20
2023-03-24T14:22:30.699Z,14.20
2023-03-24T14:24:59.031Z,14.20
2023-03-24T14:27:42.582Z,14.00
2023-03-24T14:30:23.121Z,13.90
2023-03-24T14:32:56.120Z,14.00
2023-03-24T14:35:26.003Z,14.20
2023-03-24T14:37:56.573Z,14.30
2023-03-24T14:40:37.676Z,14.10
2023-03-24T14:43:22.325Z,13.90
2023-03-24T14:46:04.514Z,13.60
2023-03-24T14:48:39.327Z,13.80
2023-03-24T14:51:18.335Z,13.60
2023-03-24T14:53:45.857Z,13.40
2023-03-24T14:56:16.736Z,13.40
2023-03-24T14:58:47.574Z,13.40
2023-03-24T15:01:15.648Z,13.60
2023-03-24T15:04:02.074Z,13.70
2023-03-24T15:06:29.213Z,14.00
2023-03-24T15:08:58.777Z,13.90
2023-03-24T15:11:34.923Z,14.10
2023-03-24T15:14:05.122Z,13.80
2023-03-24T15:16:35.573Z,13.60
2023-03-24T15:19:21.383Z,13.60
2023-03-24T15:22:03.386Z,13.50
2023-03-24T15:24:36.134Z,13.50
2023-03-24T15:27:06.577Z,13.40
2023-03-24T15:29:34.698Z,13.50
2023-03-24T15:32:01.712Z,13.60
2023-03-24T15:34:31.535Z,13.60
2023-03-24T15:37:02.181Z,13.90
2023-03-24T15:39:33.698Z,13.90
2023-03-24T15:42:00.757Z,13.80
2023-03-24T15:44:31.137Z,13.80
2023-03-24T15:46:59.954Z,13.80
2023-03-24T15:49:37.279Z,13.90
2023-03-24T15:52:35.092Z,14.20
2023-03-24T15:55:26.229Z,14.50
2023-03-24T15:57:56.231Z,14.40
2023-03-24T16:00:36.478Z,14.50
2023-03-24T16:03:06.895Z,14.40
2023-03-24T16:05:35.005Z,14.30
2023-03-24T16:08:23.522Z,14.30
2023-03-24T16:11:04.231Z,14.30
2023-03-24T16:13:31.244Z,14.30
2023-03-24T16:16:14.623Z,14.20
2023-03-24T16:18:43.958Z,14.30
2023-03-24T16:21:19.722Z,14.40
2023-03-24T16:23:47.069Z,14.40
2023-03-24T16:26:15.403Z,14.40
2023-03-24T16:28:42.299Z,14.30
2023-03-24T16:31:18.425Z,14.10
2023-03-24T16:33:45.309Z,14.10
2023-03-24T16:36:12.501Z,14.10
2023-03-24T16:38:40.981Z,14.00
2023-03-24T16:41:11.362Z,14.00
2023-03-24T16:43:38.468Z,13.90
2023-03-24T16:46:05.937Z,13.80
2023-03-24T16:48:32.857Z,13.70
2023-03-24T16:50:59.717Z,13.60
2023-03-24T16:53:26.585Z,13.50
2023-03-24T16:55:53.373Z,13.50
2023-03-24T16:58:20.233Z,13.50
2023-03-24T17:00:49.192Z,13.40
2023-03-24T17:03:17.998Z,13.20
2023-03-24T17:05:50.671Z,12.90
2023-03-24T17:08:18.945Z,12.70
2023-03-24T17:10:49.521Z,12.60
2023-03-24T17:13:25.840Z,12.60
2023-03-24T17:15:52.743Z,12.70
2023-03-24T17:18:20.049Z,12.70
2023-03-24T17:20:48.302Z,12.70
2023-03-24T17:23:18.677Z,12.70
2023-03-24T17:25:45.904Z,12.70
2023-03-24T17:28:15.008Z,12.50
2023-03-24T17:30:42.893Z,12.50
2023-03-24T17:33:14.877Z,12.40
2023-03-24T17:35:45.692Z,12.40
2023-03-24T17:38:16.784Z,12.20
2023-03-24T17:40:44.183Z,12.20
2023-03-24T17:43:11.294Z,12.20
2023-03-24T17:45:41.016Z,12.10
2023-03-24T17:48:07.868Z,12.20
2023-03-24T17:50:34.931Z,12.10
2023-03-24T17:53:01.829Z,12.10
2023-03-24T17:55:28.663Z,12.00
2023-03-24T17:57:55.681Z,12.00
2023-03-24T18:00:22.615Z,12.00
2023-03-24T18:02:49.467Z,12.00
2023-03-24T18:05:16.383Z,11.90
2023-03-24T18:07:43.235Z,11.90
2023-03-24T18:10:10.240Z,11.80
2023-03-24T18:12:37.290Z,11.70
2023-03-24T18:15:07.096Z,11.60
2023-03-24T18:17:34.193Z,11.70
2023-03-24T18:20:09.964Z,11.60
2023-03-24T18:22:37.840Z,11.50
2023-03-24T18:25:04.841Z,11.40
2023-03-24T18:27:31.907Z,11.30
2023-03-24T18:29:58.702Z,11.20
2023-03-24T18:32:27.206Z,11.10
2023-03-24T18:34:54.138Z,11.00
2023-03-24T18:37:21.090Z,11.10
2023-03-24T18:39:47.924Z,11.10
2023-03-24T18:42:14.750Z,11.10
2023-03-24T18:44:42.119Z,11.10
2023-03-24T18:47:08.983Z,11.00
2023-03-24T18:49:35.837Z,10.90
2023-03-24T18:52:02.774Z,10.90
2023-03-24T18:54:29.590Z,10.80
2023-03-24T18:56:56.767Z,10.80
2023-03-24T18:59:24.326Z,10.80
2023-03-24T19:01:51.170Z,10.70
2023-03-24T19:04:18.218Z,10.70
2023-03-24T19:06:45.986Z,10.70
2023-03-24T19:09:13.481Z,10.70
2023-03-24T19:11:43.181Z,10.70
2023-03-24T19:14:10.614Z,10.70
2023-03-24T19:16:37.708Z,10.70
2023-03-24T19:19:04.794Z,10.70
2023-03-24T19:21:31.617Z,10.70
2023-03-24T19:23:59.449Z,10.60
2023-03-24T19:26:26.408Z,10.60
2023-03-24T19:28:53.408Z,10.60
2023-03-24T19:31:20.616Z,10.50
2023-03-24T19:33:47.902Z,10.60
2023-03-24T19:36:15.561Z,10.60
2023-03-24T19:38:42.660Z,10.60
2023-03-24T19:41:13.564Z,10.50
2023-03-24T19:43:40.828Z,10.60
2023-03-24T19:46:08.262Z,10.60
2023-03-24T19:48:35.634Z,10.60
2023-03-24T19:51:02.744Z,10.60
2023-03-24T19:53:30.215Z,10.60
2023-03-24T19:55:58.842Z,10.60
2023-03-24T19:58:25.835Z,10.60
2023-03-24T20:00:53.042Z,10.50
2023-03-24T20:03:20.468Z,10.60
2023-03-24T20:05:47.524Z,10.60
2023-03-24T20:08:14.499Z,10.60
2023-03-24T20:10:41.629Z,10.50
2023-03-24T20:13:10.023Z,10.40
2023-03-24T20:15:36.888Z,10.40
2023-03-24T20:18:04.077Z,10.40
2023-03-24T20:20:31.698Z,10.30
2023-03-24T20:22:58.603Z,10.20
2023-03-24T20:25:25.457Z,10.20
2023-03-24T20:27:52.435Z,10.20
2023-03-24T20:30:20.581Z,10.20
2023-03-24T20:32:47.858Z,10.20
2023-03-24T20:35:15.057Z,10.20
2023-03-24T20:37:41.956Z,10.10
2023-03-24T20:40:12.043Z,10.00
2023-03-24T20:42:39.013Z,10.00
2023-03-24T20:45:07.316Z,10.00
2023-03-24T20:47:35.083Z,10.00
2023-03-24T20:50:02.572Z,10.00
2023-03-24T20:52:29.724Z,10.00
2023-03-24T20:54:56.699Z,10.00
2023-03-24T20:57:25.724Z,10.00
2023-03-24T20:59:52.819Z,9.90
2023-03-24T21:02:20.324Z,9.90
2023-03-24T21:04:47.240Z,10.00
2023-03-24T21:07:14.397Z,10.00
2023-03-24T21:09:41.368Z,10.00
2023-03-24T21:12:09.474Z,10.00
2023-03-24T21:14:36.546Z,9.90
2023-03-24T21:17:03.673Z,10.00
2023-03-24T21:19:30.582Z,10.00
2023-03-24T21:21:57.464Z,9.90
2023-03-24T21:24:24.573Z,10.00
2023-03-24T21:26:53.951Z,10.00
2023-03-24T21:29:22.566Z,10.00
2023-03-24T21:31:49.908Z,10.00
2023-03-24T21:34:17.170Z,10.00
2023-03-24T21:36:44.040Z,9.90
2023-03-24T21:39:12.053Z,9.90
2023-03-24T21:41:39.895Z,9.90
2023-03-24T21:44:09.231Z,9.90
2023-03-24T21:46:37.049Z,9.90
2023-03-24T21:49:05.014Z,10.00
2023-03-24T21:51:34.933Z,9.90
2023-03-24T21:54:03.565Z,10.00
2023-03-24T21:56:32.844Z,9.90
2023-03-24T21:59:00.144Z,9.90
2023-03-24T22:01:27.266Z,9.90
2023-03-24T22:03:54.701Z,9.90
2023-03-24T22:06:22.789Z,9.80
2023-03-24T22:08:50.128Z,9.80
2023-03-24T22:11:19.048Z,9.80
2023-03-24T22:13:46.614Z,9.90
2023-03-24T22:16:14.483Z,9.90
2023-03-24T22:18:41.613Z,9.90
2023-03-24T22:21:10.544Z,9.90
2023-03-24T22:23:39.514Z,9.90
2023-03-24T22:26:12.284Z,9.90
2023-03-24T22:28:40.100Z,10.00
2023-03-24T22:31:09.580Z,10.00
2023-03-24T22:33:37.447Z,10.00
2023-03-24T22:36:05.625Z,9.90
2023-03-24T22:38:34.376Z,10.00
2023-03-24T22:41:04.767Z,9.90
2023-03-24T22:43:32.210Z,9.90
2023-03-24T22:45:59.086Z,9.80
2023-03-24T22:48:26.041Z,9.80
2023-03-24T22:50:53.496Z,9.80
2023-03-24T22:53:20.572Z,9.80
2023-03-24T22:55:47.935Z,9.80
2023-03-24T22:58:14.982Z,9.80
2023-03-24T23:00:43.677Z,9.80
2023-03-24T23:03:10.885Z,9.80
2023-03-24T23:05:45.838Z,9.80
2023-03-24T23:08:15.229Z,9.80
2023-03-24T23:10:44.049Z,9.80
2023-03-24T23:13:11.363Z,9.80
2023-03-24T23:15:39.496Z,9.80
2023-03-24T23:18:06.315Z,9.80
2023-03-24T23:20:33.213Z,9.80
2023-03-24T23:23:01.394Z,9.80
2023-03-24T23:25:31.170Z,9.80
2023-03-24T23:27:58.630Z,9.80
2023-03-24T23:30:25.676Z,9.80
2023-03-24T23:32:52.838Z,9.70
2023-03-24T23:35:19.959Z,9.70
2023-03-24T23:37:46.850Z,9.70
2023-03-24T23:40:15.586Z,9.80
2023-03-24T23:42:45.423Z,9.80
2023-03-24T23:45:14.755Z,9.80
2023-03-24T23:47:43.669Z,9.80
2023-03-24T23:50:11.604Z,9.70
2023-03-24T23:52:41.325Z,9.80
2023-03-24T23:55:10.369Z,9.80
2023-03-24T23:57:41.633Z,9.80
